createdAt,value
2017-07-19T00:01:02.274Z,62.90
2017-07-19T00:03:29.806Z,62.90
2017-07-19T00:05:57.641Z,63.00
2017-07-19T00:08:25.186Z,63.20
2017-07-19T00:10:52.719Z,63.20
2017-07-19T00:13:20.294Z,63.20
2017-07-19T00:15:47.950Z,63.30
2017-07-19T00:18:15.491Z,63.40
2017-07-19T00:20:43.070Z,63.50
2017-07-19T00:23:10.615Z,63.60
2017-07-19T00:25:38.489Z,63.70
2017-07-19T00:28:06.030Z,63.70
2017-07-19T00:30:33.575Z,63.70
2017-07-19T00:33:01.222Z,63.90
2017-07-19T00:35:29.141Z,64.00
2017-07-19T00:37:56.685Z,64.00
2017-07-19T00:40:24.221Z,64.20
2017-07-19T00:42:51.960Z,64.20
2017-07-19T00:45:19.498Z,64.20
2017-07-19T00:47:53.258Z,64.30
2017-07-19T00:50:20.798Z,64.40
2017-07-19T00:52:48.453Z,64.30
2017-07-19T00:55:16.454Z,64.60
2017-07-19T00:57:44.077Z,64.50
2017-07-19T01:00:12.391Z,64.80
2017-07-19T01:02:39.937Z,64.70
2017-07-19T01:05:07.509Z,64.90
2017-07-19T01:07:35.053Z,64.90
2017-07-19T01:10:02.914Z,64.90
2017-07-19T01:12:30.501Z,65.00
2017-07-19T01:14:58.037Z,65.10
2017-07-19T01:17:26.382Z,65.30
2017-07-19T01:19:53.961Z,65.20
2017-07-19T01:22:21.542Z,65.30
2017-07-19T01:24:49.077Z,65.40
2017-07-19T01:27:16.861Z,65.40
2017-07-19T01:29:44.400Z,65.50
2017-07-19T01:32:12.043Z,65.50
2017-07-19T01:34:39.584Z,65.50
2017-07-19T01:37:07.434Z,65.70
2017-07-19T01:39:34.975Z,65.70
2017-07-19T01:42:02.515Z,65.80
2017-07-19T01:44:30.282Z,65.80
2017-07-19T01:46:58.631Z,65.70
2017-07-19T01:49:26.499Z,65.90
2017-07-19T01:51:54.037Z,65.90
2017-07-19T01:54:21.587Z,66.00
2017-07-19T01:56:49.283Z,66.10
2017-07-19T01:59:16.829Z,66.10
2017-07-19T02:01:44.587Z,66.20
2017-07-19T02:04:12.130Z,66.20
2017-07-19T02:06:39.726Z,66.30
2017-07-19T02:09:07.279Z,66.40
2017-07-19T02:11:34.863Z,66.50
2017-07-19T02:14:02.451Z,66.60
2017-07-19T02:16:29.995Z,66.80
2017-07-19T02:18:58.954Z,67.10
2017-07-19T02:21:26.493Z,67.00
2017-07-19T02:23:54.044Z,67.00
2017-07-19T02:26:22.058Z,67.20
2017-07-19T02:28:49.597Z,67.30
2017-07-19T02:31:17.145Z,67.40
2017-07-19T02:33:48.746Z,67.40
2017-07-19T02:36:16.286Z,67.50
2017-07-19T02:38:43.828Z,67.60
2017-07-19T02:41:11.564Z,67.60
2017-07-19T02:43:39.111Z,67.60
2017-07-19T02:46:07.848Z,67.60
2017-07-19T02:48:35.387Z,67.50
2017-07-19T02:51:02.935Z,67.70
2017-07-19T02:53:30.520Z,67.70
2017-07-19T02:55:58.069Z,67.90
2017-07-19T02:58:25.768Z,67.90
2017-07-19T03:00:53.305Z,67.80
2017-07-19T03:03:21.134Z,67.80
2017-07-19T03:05:49.481Z,67.90
2017-07-19T03:08:17.028Z,67.90
2017-07-19T03:10:44.613Z,68.00
2017-07-19T03:13:12.154Z,68.00
2017-07-19T03:15:40.119Z,68.10
2017-07-19T03:18:07.662Z,68.10
2017-07-19T03:20:35.205Z,68.10
2017-07-19T03:23:02.789Z,68.10
2017-07-19T03:25:30.370Z,68.20
2017-07-19T03:27:57.912Z,68.30
2017-07-19T03:30:25.499Z,68.40
2017-07-19T03:32:53.043Z,68.60
2017-07-19T03:35:21.208Z,68.70
2017-07-19T03:37:48.794Z,68.80
2017-07-19T03:40:16.343Z,68.80
2017-07-19T03:42:43.926Z,68.80
2017-07-19T03:45:12.242Z,69.00
2017-07-19T03:47:40.083Z,68.90
2017-07-19T03:50:07.624Z,69.00
2017-07-19T03:52:35.163Z,69.00
2017-07-19T03:55:02.961Z,69.00
2017-07-19T03:57:31.270Z,69.10
2017-07-19T03:59:58.850Z,69.10
2017-07-19T04:02:26.434Z,69.10
2017-07-19T04:04:53.996Z,69.10
2017-07-19T04:07:21.590Z,69.10
2017-07-19T04:09:49.124Z,69.20
2017-07-19T04:12:16.965Z,69.30
2017-07-19T04:14:44.514Z,69.40
2017-07-19T04:17:12.397Z,69.30
2017-07-19T04:19:39.938Z,69.20
2017-07-19T04:22:07.481Z,69.30
2017-07-19T04:24:35.061Z,69.30
2017-07-19T04:27:02.642Z,69.30
2017-07-19T04:29:30.186Z,69.40
2017-07-19T04:31:58.520Z,69.40
2017-07-19T04:34:27.058Z,69.20
2017-07-19T04:36:54.600Z,69.20
2017-07-19T04:39:22.705Z,69.30
2017-07-19T04:41:50.253Z,69.20
2017-07-19T04:44:17.795Z,69.40
2017-07-19T04:46:45.773Z,69.40
2017-07-19T04:49:13.319Z,69.30
2017-07-19T04:51:40.960Z,69.40
2017-07-19T04:54:08.610Z,69.30
2017-07-19T04:56:37.147Z,69.40
2017-07-19T04:59:04.729Z,69.30
2017-07-19T05:01:32.676Z,69.30
2017-07-19T05:04:00.323Z,69.40
2017-07-19T05:06:27.874Z,69.30
2017-07-19T05:08:55.651Z,69.20
2017-07-19T05:11:23.190Z,69.10
2017-07-19T05:13:50.771Z,69.10
2017-07-19T05:16:18.313Z,69.10
2017-07-19T05:18:45.894Z,69.10
2017-07-19T05:21:13.442Z,69.00
2017-07-19T05:23:41.022Z,69.10
2017-07-19T05:26:08.572Z,69.30
2017-07-19T05:28:36.724Z,69.20
2017-07-19T05:31:04.266Z,69.10
2017-07-19T05:33:31.810Z,69.00
2017-07-19T05:35:59.745Z,68.90
2017-07-19T05:38:27.284Z,68.90
2017-07-19T05:40:54.831Z,68.80
2017-07-19T05:43:22.482Z,68.80
2017-07-19T05:45:50.528Z,68.60
2017-07-19T05:48:18.092Z,68.40
2017-07-19T05:50:45.641Z,68.30
2017-07-19T05:53:13.393Z,68.30
2017-07-19T05:55:41.005Z,68.10
2017-07-19T05:58:08.585Z,67.90
2017-07-19T06:00:36.132Z,67.80
2017-07-19T06:03:05.394Z,67.80
2017-07-19T06:05:32.942Z,67.90
2017-07-19T06:08:00.477Z,67.50
2017-07-19T06:10:28.194Z,67.20
2017-07-19T06:12:55.742Z,67.40
2017-07-19T06:15:23.278Z,67.40
2017-07-19T06:17:50.861Z,67.30
2017-07-19T06:20:18.414Z,67.20
2017-07-19T06:22:47.701Z,66.90
2017-07-19T06:25:15.243Z,66.60
2017-07-19T06:27:42.786Z,66.40
2017-07-19T06:30:10.373Z,66.30
2017-07-19T06:32:37.958Z,66.30
2017-07-19T06:35:05.503Z,66.10
2017-07-19T06:37:33.457Z,65.80
2017-07-19T06:40:01.006Z,65.50
2017-07-19T06:42:28.549Z,65.40
2017-07-19T06:44:56.561Z,65.50
2017-07-19T06:47:24.093Z,65.40
2017-07-19T06:49:51.646Z,65.30
2017-07-19T06:52:19.233Z,65.00
2017-07-19T06:54:51.203Z,64.90
2017-07-19T06:57:18.749Z,64.50
2017-07-19T06:59:46.289Z,64.30
2017-07-19T07:02:13.956Z,64.40
2017-07-19T07:04:41.686Z,64.30
2017-07-19T07:07:09.995Z,63.90
2017-07-19T07:09:37.539Z,63.90
2017-07-19T07:12:05.265Z,63.80
2017-07-19T07:14:32.809Z,63.80
2017-07-19T07:17:00.342Z,63.50
2017-07-19T07:19:27.925Z,63.40
2017-07-19T07:21:55.465Z,63.20
2017-07-19T07:24:23.052Z,63.00
2017-07-19T07:26:53.482Z,62.70
2017-07-19T07:29:21.013Z,62.70
2017-07-19T07:31:48.554Z,62.40
2017-07-19T07:34:16.134Z,62.30
2017-07-19T07:36:43.673Z,62.00
2017-07-19T07:39:11.589Z,62.00
2017-07-19T07:41:39.130Z,61.90
2017-07-19T07:44:06.672Z,61.80
2017-07-19T07:46:35.069Z,61.90
2017-07-19T07:49:02.648Z,61.50
2017-07-19T07:51:30.181Z,61.50
2017-07-19T07:53:57.774Z,61.50
2017-07-19T07:56:25.710Z,61.80
2017-07-19T07:58:53.250Z,61.60
2017-07-19T08:01:21.163Z,61.10
2017-07-19T08:03:48.704Z,60.80
2017-07-19T08:06:16.255Z,60.80
2017-07-19T08:08:44.362Z,60.60
2017-07-19T08:11:11.892Z,60.50
2017-07-19T08:13:39.421Z,60.30
2017-07-19T08:16:06.993Z,60.00
2017-07-19T08:18:34.534Z,59.60
2017-07-19T08:21:02.112Z,59.30
2017-07-19T08:23:29.690Z,59.00
2017-07-19T08:25:57.229Z,58.60
2017-07-19T08:28:24.997Z,58.20
2017-07-19T08:30:52.525Z,58.10
2017-07-19T08:33:20.566Z,58.00
2017-07-19T08:35:48.102Z,57.70
2017-07-19T08:38:15.641Z,57.30
2017-07-19T08:40:43.978Z,56.30
2017-07-19T08:43:12.056Z,56.20
2017-07-19T08:45:39.589Z,56.30
2017-07-19T08:48:07.130Z,56.20
2017-07-19T08:50:34.770Z,55.90
2017-07-19T08:53:03.429Z,55.70
2017-07-19T08:55:31.229Z,55.60
2017-07-19T08:57:59.522Z,55.30
2017-07-19T09:00:27.565Z,55.20
2017-07-19T09:02:55.868Z,54.90
2017-07-19T09:05:23.397Z,54.90
2017-07-19T09:07:52.102Z,53.90
2017-07-19T09:10:20.398Z,54.70
2017-07-19T09:12:47.937Z,54.70
2017-07-19T09:15:19.334Z,54.80
2017-07-19T09:17:46.878Z,54.80
2017-07-19T09:20:14.414Z,54.80
2017-07-19T09:22:41.988Z,54.60
2017-07-19T09:25:09.562Z,54.40
2017-07-19T09:27:37.094Z,54.10
2017-07-19T09:30:04.631Z,54.00
2017-07-19T09:32:32.325Z,54.00
2017-07-19T09:34:59.853Z,53.80
2017-07-19T09:37:27.793Z,53.90
2017-07-19T09:39:55.325Z,53.50
2017-07-19T09:42:22.863Z,53.10
2017-07-19T09:44:50.436Z,52.60
2017-07-19T09:47:17.964Z,52.40
2017-07-19T09:49:46.817Z,52.80
2017-07-19T09:52:14.388Z,52.10
2017-07-19T09:54:41.959Z,51.90
2017-07-19T09:57:10.075Z,51.90
2017-07-19T09:59:38.089Z,51.70
2017-07-19T10:02:05.630Z,51.20
2017-07-19T10:04:33.160Z,50.40
2017-07-19T10:07:03.445Z,50.10
2017-07-19T10:09:30.983Z,49.60
2017-07-19T10:11:58.837Z,49.40
2017-07-19T10:14:26.370Z,49.20
2017-07-19T10:16:53.914Z,49.00
2017-07-19T10:19:21.488Z,48.70
2017-07-19T10:21:49.026Z,48.30
2017-07-19T10:24:19.211Z,48.30
2017-07-19T10:26:46.751Z,48.20
2017-07-19T10:29:14.320Z,47.90
2017-07-19T10:31:41.858Z,47.80
2017-07-19T10:34:09.438Z,47.70
2017-07-19T10:36:36.978Z,47.60
2017-07-19T10:39:07.439Z,47.40
2017-07-19T10:41:34.977Z,47.30
2017-07-19T10:44:02.510Z,47.10
2017-07-19T10:46:30.849Z,46.80
2017-07-19T10:48:58.425Z,46.80
2017-07-19T10:51:26.739Z,47.10
2017-07-19T10:53:57.415Z,47.00
2017-07-19T10:56:25.090Z,47.20
2017-07-19T10:58:52.905Z,46.80
2017-07-19T11:01:20.447Z,46.50
2017-07-19T11:03:47.974Z,46.30
2017-07-19T11:06:15.542Z,46.20
2017-07-19T11:08:43.076Z,46.30
2017-07-19T11:11:11.158Z,46.30
2017-07-19T11:13:38.687Z,46.40
2017-07-19T11:16:06.218Z,46.50
2017-07-19T11:18:33.792Z,46.10
2017-07-19T11:21:01.329Z,46.30
2017-07-19T11:23:28.912Z,46.40
2017-07-19T11:25:56.510Z,46.10
2017-07-19T11:28:24.190Z,45.90
2017-07-19T11:30:51.725Z,45.70
2017-07-19T11:33:19.501Z,45.80
2017-07-19T11:35:47.039Z,46.10
2017-07-19T11:38:17.393Z,46.20
2017-07-19T11:40:44.921Z,46.20
2017-07-19T11:43:12.455Z,46.00
2017-07-19T11:45:40.796Z,45.70
2017-07-19T11:48:08.856Z,45.30
2017-07-19T11:50:36.392Z,46.00
2017-07-19T11:53:03.938Z,46.20
2017-07-19T11:55:32.373Z,46.00
2017-07-19T11:57:59.905Z,45.80
2017-07-19T12:00:27.443Z,45.40
2017-07-19T12:02:55.264Z,45.30
2017-07-19T12:05:22.806Z,45.40
2017-07-19T12:07:50.357Z,45.50
2017-07-19T12:10:18.476Z,45.30
2017-07-19T12:12:46.777Z,44.30
2017-07-19T12:15:14.314Z,44.30
2017-07-19T12:17:41.891Z,44.30
2017-07-19T12:20:09.461Z,43.90
2017-07-19T12:22:37.010Z,43.40
2017-07-19T12:25:05.941Z,43.20
2017-07-19T12:27:33.476Z,43.20
2017-07-19T12:30:01.005Z,42.80
2017-07-19T12:32:29.354Z,43.40
2017-07-19T12:34:56.949Z,42.70
2017-07-19T12:37:25.241Z,42.80
2017-07-19T12:39:52.773Z,42.80
2017-07-19T12:42:20.419Z,43.00
2017-07-19T12:44:47.952Z,43.40
2017-07-19T12:47:16.041Z,44.10
2017-07-19T12:49:43.584Z,43.20
2017-07-19T12:52:11.121Z,43.40
2017-07-19T12:54:39.029Z,43.30
2017-07-19T12:57:06.706Z,43.20
2017-07-19T12:59:34.434Z,43.30
2017-07-19T13:02:01.969Z,43.70
2017-07-19T13:04:29.589Z,43.60
2017-07-19T13:06:57.118Z,43.40
2017-07-19T13:09:25.005Z,43.40
2017-07-19T13:11:52.966Z,43.70
2017-07-19T13:14:20.492Z,43.40
2017-07-19T13:16:48.029Z,42.90
2017-07-19T13:19:16.058Z,42.90
2017-07-19T13:21:43.593Z,42.80
2017-07-19T13:24:11.125Z,42.90
2017-07-19T13:26:39.457Z,43.40
2017-07-19T13:29:06.988Z,43.30
2017-07-19T13:31:34.557Z,43.50
2017-07-19T13:34:02.558Z,43.90
2017-07-19T13:36:30.085Z,44.10
2017-07-19T13:38:57.622Z,44.30
2017-07-19T13:41:25.957Z,44.40
2017-07-19T13:43:53.501Z,44.40
2017-07-19T13:46:21.081Z,44.60
2017-07-19T13:48:48.614Z,45.00
2017-07-19T13:51:16.286Z,45.00
2017-07-19T13:53:43.817Z,45.40
2017-07-19T13:56:12.201Z,45.70
2017-07-19T13:58:39.744Z,46.20
2017-07-19T14:01:07.968Z,46.60
2017-07-19T14:03:35.498Z,46.60
2017-07-19T14:06:03.029Z,46.60
2017-07-19T14:08:31.365Z,49.10
2017-07-19T14:10:58.945Z,49.10
2017-07-19T14:13:26.477Z,51.00
2017-07-19T14:15:54.059Z,53.20
2017-07-19T14:18:21.597Z,55.10
2017-07-19T14:20:49.309Z,56.90
2017-07-19T14:23:17.610Z,59.30
2017-07-19T14:25:45.194Z,59.20
2017-07-19T14:28:12.746Z,60.50
2017-07-19T14:30:40.337Z,62.10
2017-07-19T14:33:07.874Z,63.10
2017-07-19T14:35:35.432Z,63.90
2017-07-19T14:38:08.234Z,64.30
2017-07-19T14:40:35.765Z,64.90
2017-07-19T14:43:03.657Z,65.90
2017-07-19T14:45:31.198Z,66.30
2017-07-19T14:47:59.500Z,67.20
2017-07-19T14:50:27.470Z,67.20
2017-07-19T14:52:55.010Z,67.90
2017-07-19T14:55:22.588Z,68.00
2017-07-19T14:57:51.254Z,68.20
2017-07-19T15:00:18.799Z,68.30
2017-07-19T15:02:46.369Z,69.20
2017-07-19T15:05:13.952Z,68.80
2017-07-19T15:07:41.560Z,69.10
2017-07-19T15:10:09.864Z,70.20
2017-07-19T15:12:37.406Z,70.20
2017-07-19T15:15:06.652Z,70.60
2017-07-19T15:17:34.184Z,71.00
2017-07-19T15:20:01.719Z,71.70
2017-07-19T15:22:29.876Z,72.30
2017-07-19T15:24:57.445Z,72.90
2017-07-19T15:27:25.763Z,74.10
2017-07-19T15:29:53.629Z,74.10
2017-07-19T15:32:21.164Z,74.40
2017-07-19T15:34:48.933Z,74.70
2017-07-19T15:37:16.589Z,74.60
2017-07-19T15:39:44.256Z,74.10
2017-07-19T15:42:11.878Z,73.90
2017-07-19T15:44:39.453Z,74.10
2017-07-19T15:47:07.001Z,74.60
2017-07-19T15:49:34.589Z,74.90
2017-07-19T15:52:02.134Z,75.40
2017-07-19T15:54:29.756Z,75.90
2017-07-19T15:56:58.966Z,76.30
2017-07-19T15:59:26.505Z,76.60
2017-07-19T16:01:54.203Z,76.80
2017-07-19T16:04:21.826Z,76.80
2017-07-19T16:06:50.215Z,76.60
2017-07-19T16:09:17.794Z,76.20
2017-07-19T16:11:45.447Z,76.40
2017-07-19T16:14:13.084Z,76.70
2017-07-19T16:16:40.626Z,77.00
2017-07-19T16:19:08.966Z,77.10
2017-07-19T16:21:36.510Z,77.10
2017-07-19T16:24:04.089Z,77.20
2017-07-19T16:26:31.644Z,77.20
2017-07-19T16:28:59.289Z,77.40
2017-07-19T16:31:26.825Z,77.50
2017-07-19T16:33:54.822Z,77.60
2017-07-19T16:36:22.365Z,77.60
2017-07-19T16:38:49.901Z,77.90
2017-07-19T16:41:17.553Z,78.10
2017-07-19T16:43:45.966Z,78.30
2017-07-19T16:46:13.861Z,78.20
2017-07-19T16:48:41.417Z,78.20
2017-07-19T16:51:08.948Z,78.30
2017-07-19T16:53:36.864Z,78.20
2017-07-19T16:56:04.769Z,78.30
2017-07-19T16:58:32.314Z,78.50
2017-07-19T17:00:59.962Z,78.40
2017-07-19T17:03:27.561Z,78.30
2017-07-19T17:05:55.413Z,78.20
2017-07-19T17:08:22.945Z,78.50
2017-07-19T17:10:50.489Z,78.40
2017-07-19T17:13:18.075Z,78.10
2017-07-19T17:15:45.617Z,78.20
2017-07-19T17:18:13.432Z,78.60
2017-07-19T17:20:40.991Z,78.90
2017-07-19T17:23:08.584Z,79.70
2017-07-19T17:25:36.130Z,80.20
2017-07-19T17:28:04.121Z,80.70
2017-07-19T17:30:31.662Z,80.70
2017-07-19T17:32:59.199Z,80.80
2017-07-19T17:35:27.349Z,80.70
2017-07-19T17:37:55.709Z,80.20
2017-07-19T17:40:23.254Z,80.20
2017-07-19T17:42:51.097Z,80.00
2017-07-19T17:45:18.641Z,79.90
2017-07-19T17:47:46.177Z,79.90
2017-07-19T17:50:14.061Z,79.80
2017-07-19T17:52:41.601Z,79.80
2017-07-19T17:55:09.148Z,79.60
2017-07-19T17:57:37.758Z,79.70
2017-07-19T18:00:06.059Z,80.10
2017-07-19T18:02:33.642Z,80.00
2017-07-19T18:05:01.225Z,80.00
2017-07-19T18:07:28.757Z,80.10
2017-07-19T18:09:56.306Z,80.10
2017-07-19T18:12:24.072Z,79.90
2017-07-19T18:14:51.649Z,79.90
2017-07-19T18:17:19.203Z,79.80
2017-07-19T18:19:47.082Z,79.50
2017-07-19T18:22:14.630Z,79.50
2017-07-19T18:24:42.169Z,79.80
2017-07-19T18:27:09.757Z,79.90
2017-07-19T18:29:37.292Z,79.90
2017-07-19T18:32:05.057Z,80.00
2017-07-19T18:34:32.598Z,80.30
2017-07-19T18:37:00.997Z,80.40
2017-07-19T18:39:28.537Z,80.30
2017-07-19T18:41:56.118Z,80.60
2017-07-19T18:44:23.658Z,80.90
2017-07-19T18:46:51.686Z,81.20
2017-07-19T18:49:19.216Z,81.50
2017-07-19T18:51:46.749Z,81.70
2017-07-19T18:54:19.653Z,81.90
2017-07-19T18:56:47.197Z,82.10
2017-07-19T18:59:19.935Z,82.30
2017-07-19T19:01:47.520Z,82.50
2017-07-19T19:04:15.070Z,82.60
2017-07-19T19:06:42.640Z,82.50
2017-07-19T19:09:11.135Z,82.50
2017-07-19T19:11:39.442Z,82.60
2017-07-19T19:14:07.017Z,82.50
2017-07-19T19:16:34.559Z,82.80
2017-07-19T19:19:02.146Z,83.00
2017-07-19T19:21:29.722Z,82.80
2017-07-19T19:23:57.261Z,82.90
2017-07-19T19:26:25.137Z,83.00
2017-07-19T19:28:52.669Z,83.10
2017-07-19T19:31:20.209Z,83.30
2017-07-19T19:33:52.679Z,83.40
2017-07-19T19:36:20.592Z,83.60
2017-07-19T19:38:48.126Z,83.80
2017-07-19T19:41:15.661Z,83.80
2017-07-19T19:43:43.794Z,83.90
2017-07-19T19:46:11.324Z,84.00
2017-07-19T19:48:38.862Z,84.00
2017-07-19T19:51:06.453Z,84.00
2017-07-19T19:53:33.985Z,84.20
2017-07-19T19:56:01.529Z,84.10
2017-07-19T19:58:30.252Z,84.70
2017-07-19T20:00:58.289Z,83.90
2017-07-19T20:03:25.886Z,83.80
2017-07-19T20:05:53.729Z,84.00
2017-07-19T20:08:21.269Z,84.10
2017-07-19T20:10:48.809Z,84.30
2017-07-19T20:13:16.652Z,84.60
2017-07-19T20:15:44.266Z,84.60
2017-07-19T20:18:17.316Z,84.70
2017-07-19T20:20:44.844Z,84.60
2017-07-19T20:23:12.385Z,84.50
2017-07-19T20:25:40.036Z,84.50
2017-07-19T20:28:07.609Z,84.60
2017-07-19T20:30:35.154Z,84.60
2017-07-19T20:33:03.546Z,84.90
2017-07-19T20:35:31.087Z,84.70
2017-07-19T20:37:58.629Z,85.00
2017-07-19T20:40:26.794Z,84.90
2017-07-19T20:42:54.332Z,85.00
2017-07-19T20:45:21.870Z,85.20
2017-07-19T20:47:50.090Z,85.20
2017-07-19T20:50:17.625Z,85.30
2017-07-19T20:52:45.171Z,85.20
2017-07-19T20:55:13.133Z,85.20
2017-07-19T20:57:40.684Z,85.20
2017-07-19T21:00:08.998Z,85.30
2017-07-19T21:02:38.305Z,85.30
2017-07-19T21:05:05.850Z,85.30
2017-07-19T21:07:33.388Z,85.20
2017-07-19T21:10:01.302Z,85.30
2017-07-19T21:12:28.842Z,85.40
2017-07-19T21:14:56.385Z,85.40
2017-07-19T21:17:23.971Z,85.40
2017-07-19T21:19:51.510Z,85.50
2017-07-19T21:22:19.513Z,85.60
2017-07-19T21:24:47.093Z,85.60
2017-07-19T21:27:14.649Z,85.70
2017-07-19T21:29:42.296Z,85.80
2017-07-19T21:32:09.881Z,85.70
2017-07-19T21:34:37.421Z,85.60
2017-07-19T21:37:05.413Z,85.50
2017-07-19T21:39:33.725Z,86.00
2017-07-19T21:42:01.261Z,85.40
2017-07-19T21:44:29.652Z,85.40
2017-07-19T21:46:57.678Z,85.40
2017-07-19T21:49:25.220Z,85.50
2017-07-19T21:51:52.762Z,85.60
2017-07-19T21:54:20.609Z,85.70
2017-07-19T21:56:48.158Z,85.70
2017-07-19T21:59:16.805Z,85.60
2017-07-19T22:01:44.341Z,85.50
2017-07-19T22:04:12.293Z,85.50
2017-07-19T22:06:39.889Z,85.50
2017-07-19T22:09:07.685Z,85.60
2017-07-19T22:11:35.221Z,85.60
2017-07-19T22:14:02.766Z,85.60
2017-07-19T22:16:30.778Z,85.60
2017-07-19T22:18:59.089Z,86.10
2017-07-19T22:21:26.639Z,85.70
2017-07-19T22:23:54.310Z,85.80
2017-07-19T22:26:22.325Z,86.00
2017-07-19T22:28:49.872Z,85.90
2017-07-19T22:31:17.414Z,85.90
2017-07-19T22:33:45.326Z,85.90
2017-07-19T22:36:12.878Z,86.00
2017-07-19T22:38:40.482Z,86.00
2017-07-19T22:41:08.027Z,86.00
2017-07-19T22:43:36.345Z,86.00
2017-07-19T22:46:04.037Z,86.00
2017-07-19T22:48:31.577Z,86.00
2017-07-19T22:50:59.125Z,86.10
2017-07-19T22:53:26.907Z,86.10
2017-07-19T22:55:55.881Z,86.20
2017-07-19T22:58:23.431Z,86.40
2017-07-19T23:00:50.977Z,86.40
2017-07-19T23:03:19.614Z,86.40
2017-07-19T23:05:47.149Z,86.30
2017-07-19T23:08:14.708Z,86.20
2017-07-19T23:10:42.349Z,86.30
2017-07-19T23:13:09.901Z,86.30
2017-07-19T23:15:38.215Z,86.50
2017-07-19T23:18:06.109Z,86.50
2017-07-19T23:20:33.650Z,86.40
2017-07-19T23:23:01.193Z,87.20
2017-07-19T23:25:28.782Z,87.30
2017-07-19T23:27:56.316Z,86.60
2017-07-19T23:30:23.949Z,86.60
2017-07-19T23:32:52.266Z,86.60
2017-07-19T23:35:19.848Z,86.60
2017-07-19T23:37:48.021Z,86.60
2017-07-19T23:40:15.569Z,86.70
2017-07-19T23:42:43.114Z,86.70
2017-07-19T23:45:11.114Z,86.70
2017-07-19T23:47:38.650Z,86.80
2017-07-19T23:50:06.193Z,87.00
2017-07-19T23:52:39.231Z,86.90
2017-07-19T23:55:07.386Z,87.10
2017-07-19T23:57:34.948Z,87.20
